Umea Robacksdalen, Sweden

4:15 PM CEST on September 01, 2015 (GMT +0200)
Berghem | | Change Station
CLOSE
Current Station
Personal Weather Station
Location: Umeå, VäSTERBOTTENS LäN
Elevation: 130 ft
Nearby Weather Stations

Elev 130 ft 63.83 °N, 20.30 °E | Updated 12 minutes ago

Clear
Clear
61.2 °F
Feels Like 61.2 °F
N
2.0
Wind Variable Wind from East
Gusts 4.0 mph

Today
High -- | Low -- °F
--% Chance of Precip.
Yesterday
High -- | Low -- °F
Precip. -- in
5:21 AM 7:55 PM
Waning Gibbous, 88% visible
Pressure 30.01 in
Visibility -9999.0 miles
Clouds
Dew Point 48 °F
Humidity 62%
Rainfall 0.00 in
Snow Depth Not available.
UV Not available.
Pollen Not available.
Air Quality Not available.
Flu Activity Not available.
METAR ESNU 011350Z 08006KT CAVOK 15/08 Q1016
Pressure 30.01 in
Visibility -9999.0 miles
Clouds
Dew Point 48 °F
Humidity 62%
Rainfall 0.00 in
Snow Depth Not available.
UV Not available.
Pollen Not available.
Air Quality Not available.
Flu Activity Not available.
METAR ESNU 011350Z 08006KT CAVOK 15/08 Q1016

10-Day Weather Forecast

×

Almanac

Astronomy

Sep. 01, 2015 Rise Set
Actual Time
Civil Twilight
Nautical Twilight
Astronomical Twilight
Moon
Length of Visible Light
Length of Day
Tomorrow will be .
, % of the Moon is Illuminated

Today's Extremes

Country Highs Country Lows

Community

WunderPhotos

Upload Photos

1,851,512 photos uploaded!

WunderBlogs® & News

Nearby

Air Quality

  Air Quality AQ Index Pollutant
Not available.

Snow Depth

Station Depth Elevation

Earthquake Activity

City Distance Mag. Time & Date
Minimum magnitude displayed is 2.5.

Coastal Water Temperatures

Place Temperature

Stations

Nearby Weather Stations

Station Location Temp. Windchill Dew Point Humidity Wind Precip. Elev Updated Type